sensor_id;sensor_type;location;lat;lon;timestamp;temperature;humidity
17152;DHT22;8691;50.828;4.700;2023-11-19T00:02:14;12.90;99.90
17152;DHT22;8691;50.828;4.700;2023-11-19T00:04:41;12.90;99.90
17152;DHT22;8691;50.828;4.700;2023-11-19T00:07:08;12.90;99.90
17152;DHT22;8691;50.828;4.700;2023-11-19T00:09:35;12.90;99.90
17152;DHT22;8691;50.828;4.700;2023-11-19T00:12:02;12.90;99.90
17152;DHT22;8691;50.828;4.700;2023-11-19T00:14:29;12.90;99.90
17152;DHT22;8691;50.828;4.700;2023-11-19T00:16:55;12.90;99.90
17152;DHT22;8691;50.828;4.700;2023-11-19T00:19:23;12.90;99.90
17152;DHT22;8691;50.828;4.700;2023-11-19T00:21:49;12.90;99.90
17152;DHT22;8691;50.828;4.700;2023-11-19T00:24:17;12.90;99.90
17152;DHT22;8691;50.828;4.700;2023-11-19T00:26:43;12.90;99.90
17152;DHT22;8691;50.828;4.700;2023-11-19T00:29:10;12.90;99.90
17152;DHT22;8691;50.828;4.700;2023-11-19T00:31:37;12.90;99.90
17152;DHT22;8691;50.828;4.700;2023-11-19T00:34:04;13.00;99.90
17152;DHT22;8691;50.828;4.700;2023-11-19T00:36:31;13.00;99.90
17152;DHT22;8691;50.828;4.700;2023-11-19T00:38:58;13.00;99.90
17152;DHT22;8691;50.828;4.700;2023-11-19T00:41:25;13.00;99.90
17152;DHT22;8691;50.828;4.700;2023-11-19T00:43:52;13.00;99.90
17152;DHT22;8691;50.828;4.700;2023-11-19T00:46:19;13.00;99.90
17152;DHT22;8691;50.828;4.700;2023-11-19T00:48:46;13.00;99.90
17152;DHT22;8691;50.828;4.700;2023-11-19T00:51:13;13.00;99.90
17152;DHT22;8691;50.828;4.700;2023-11-19T00:53:40;13.00;99.90
17152;DHT22;8691;50.828;4.700;2023-11-19T00:56:07;13.00;99.90
17152;DHT22;8691;50.828;4.700;2023-11-19T00:58:34;13.10;99.90
17152;DHT22;8691;50.828;4.700;2023-11-19T01:01:00;13.10;99.90
17152;DHT22;8691;50.828;4.700;2023-11-19T01:03:28;13.00;99.90
17152;DHT22;8691;50.828;4.700;2023-11-19T01:05:54;13.00;99.90
17152;DHT22;8691;50.828;4.700;2023-11-19T01:08:22;13.00;99.90
17152;DHT22;8691;50.828;4.700;2023-11-19T01:10:48;13.00;99.90
17152;DHT22;8691;50.828;4.700;2023-11-19T01:13:15;13.00;99.90
17152;DHT22;8691;50.828;4.700;2023-11-19T01:15:42;13.00;99.90
17152;DHT22;8691;50.828;4.700;2023-11-19T01:18:08;13.00;99.90
17152;DHT22;8691;50.828;4.700;2023-11-19T01:20:35;13.00;99.90
17152;DHT22;8691;50.828;4.700;2023-11-19T01:23:02;13.00;99.90
17152;DHT22;8691;50.828;4.700;2023-11-19T01:25:28;13.00;99.90
17152;DHT22;8691;50.828;4.700;2023-11-19T01:27:55;13.00;99.90
17152;DHT22;8691;50.828;4.700;2023-11-19T01:30:21;13.00;99.90
17152;DHT22;8691;50.828;4.700;2023-11-19T01:32:48;13.00;99.90
17152;DHT22;8691;50.828;4.700;2023-11-19T01:35:15;13.00;99.90
17152;DHT22;8691;50.828;4.700;2023-11-19T01:37:42;13.00;99.90
17152;DHT22;8691;50.828;4.700;2023-11-19T01:40:10;13.00;99.90
17152;DHT22;8691;50.828;4.700;2023-11-19T01:42:39;13.00;99.90
17152;DHT22;8691;50.828;4.700;2023-11-19T01:45:07;13.00;99.90
17152;DHT22;8691;50.828;4.700;2023-11-19T01:47:34;13.00;99.90
17152;DHT22;8691;50.828;4.700;2023-11-19T01:50:01;13.00;99.90
17152;DHT22;8691;50.828;4.700;2023-11-19T01:52:28;13.00;99.90
17152;DHT22;8691;50.828;4.700;2023-11-19T01:54:55;13.00;99.90
17152;DHT22;8691;50.828;4.700;2023-11-19T01:57:22;12.90;99.90
17152;DHT22;8691;50.828;4.700;2023-11-19T01:59:50;12.80;99.90
17152;DHT22;8691;50.828;4.700;2023-11-19T02:02:16;12.80;99.90
17152;DHT22;8691;50.828;4.700;2023-11-19T02:04:43;12.60;99.90
17152;DHT22;8691;50.828;4.700;2023-11-19T02:07:10;12.60;99.90
17152;DHT22;8691;50.828;4.700;2023-11-19T02:09:37;12.70;99.90
17152;DHT22;8691;50.828;4.700;2023-11-19T02:12:04;12.60;99.90
17152;DHT22;8691;50.828;4.700;2023-11-19T02:14:30;12.60;99.90
17152;DHT22;8691;50.828;4.700;2023-11-19T02:16:57;12.60;99.90
17152;DHT22;8691;50.828;4.700;2023-11-19T02:19:24;12.60;99.90
17152;DHT22;8691;50.828;4.700;2023-11-19T02:21:50;12.60;99.90
17152;DHT22;8691;50.828;4.700;2023-11-19T02:24:17;12.50;99.90
17152;DHT22;8691;50.828;4.700;2023-11-19T02:26:59;12.50;99.90
17152;DHT22;8691;50.828;4.700;2023-11-19T02:29:22;12.40;99.90
17152;DHT22;8691;50.828;4.700;2023-11-19T02:31:49;12.40;99.90
17152;DHT22;8691;50.828;4.700;2023-11-19T02:34:16;12.40;99.90
17152;DHT22;8691;50.828;4.700;2023-11-19T02:36:43;12.20;99.90
17152;DHT22;8691;50.828;4.700;2023-11-19T02:39:10;12.20;99.90
17152;DHT22;8691;50.828;4.700;2023-11-19T02:41:37;12.10;99.90
17152;DHT22;8691;50.828;4.700;2023-11-19T02:44:04;12.10;99.90
17152;DHT22;8691;50.828;4.700;2023-11-19T02:46:30;12.20;99.90
17152;DHT22;8691;50.828;4.700;2023-11-19T02:48:57;12.20;99.90
17152;DHT22;8691;50.828;4.700;2023-11-19T02:51:24;12.20;99.90
17152;DHT22;8691;50.828;4.700;2023-11-19T02:53:50;12.20;99.90
17152;DHT22;8691;50.828;4.700;2023-11-19T02:56:17;12.10;99.90
17152;DHT22;8691;50.828;4.700;2023-11-19T02:58:46;12.10;99.90
17152;DHT22;8691;50.828;4.700;2023-11-19T03:01:13;12.10;99.90
17152;DHT22;8691;50.828;4.700;2023-11-19T03:03:39;12.10;99.90
17152;DHT22;8691;50.828;4.700;2023-11-19T03:06:07;12.20;99.90
17152;DHT22;8691;50.828;4.700;2023-11-19T03:08:34;12.20;99.90
17152;DHT22;8691;50.828;4.700;2023-11-19T03:11:00;12.30;99.90
17152;DHT22;8691;50.828;4.700;2023-11-19T03:13:27;12.40;99.90
17152;DHT22;8691;50.828;4.700;2023-11-19T03:15:53;12.40;99.90
17152;DHT22;8691;50.828;4.700;2023-11-19T03:18:20;12.50;99.90
17152;DHT22;8691;50.828;4.700;2023-11-19T03:20:47;12.40;99.90
17152;DHT22;8691;50.828;4.700;2023-11-19T03:23:13;12.30;99.90
17152;DHT22;8691;50.828;4.700;2023-11-19T03:25:40;12.20;99.90
17152;DHT22;8691;50.828;4.700;2023-11-19T03:28:07;12.20;99.90
17152;DHT22;8691;50.828;4.700;2023-11-19T03:30:34;12.30;99.90
17152;DHT22;8691;50.828;4.700;2023-11-19T03:33:01;12.20;99.90
17152;DHT22;8691;50.828;4.700;2023-11-19T03:35:28;12.20;99.90
17152;DHT22;8691;50.828;4.700;2023-11-19T03:37:55;12.20;99.90
17152;DHT22;8691;50.828;4.700;2023-11-19T03:40:22;12.20;99.90
17152;DHT22;8691;50.828;4.700;2023-11-19T03:42:48;12.10;99.90
17152;DHT22;8691;50.828;4.700;2023-11-19T03:45:15;12.00;99.90
17152;DHT22;8691;50.828;4.700;2023-11-19T03:47:42;12.00;99.90
17152;DHT22;8691;50.828;4.700;2023-11-19T03:50:09;11.90;99.90
17152;DHT22;8691;50.828;4.700;2023-11-19T03:52:36;11.80;99.90
17152;DHT22;8691;50.828;4.700;2023-11-19T03:55:02;11.80;99.90
17152;DHT22;8691;50.828;4.700;2023-11-19T03:57:32;11.70;99.90
17152;DHT22;8691;50.828;4.700;2023-11-19T03:59:58;11.80;99.90
17152;DHT22;8691;50.828;4.700;2023-11-19T04:02:25;11.70;99.90
17152;DHT22;8691;50.828;4.700;2023-11-19T04:04:51;11.60;99.90
17152;DHT22;8691;50.828;4.700;2023-11-19T04:07:18;11.60;99.90
17152;DHT22;8691;50.828;4.700;2023-11-19T04:09:45;11.50;99.90
17152;DHT22;8691;50.828;4.700;2023-11-19T04:12:11;11.50;99.90
17152;DHT22;8691;50.828;4.700;2023-11-19T04:14:38;11.50;99.90
17152;DHT22;8691;50.828;4.700;2023-11-19T04:17:05;11.50;99.90
17152;DHT22;8691;50.828;4.700;2023-11-19T04:19:33;11.50;99.90
17152;DHT22;8691;50.828;4.700;2023-11-19T04:21:59;11.50;99.90
17152;DHT22;8691;50.828;4.700;2023-11-19T04:24:27;11.50;99.90
17152;DHT22;8691;50.828;4.700;2023-11-19T04:26:53;11.50;99.90
17152;DHT22;8691;50.828;4.700;2023-11-19T04:29:21;11.60;99.90
17152;DHT22;8691;50.828;4.700;2023-11-19T04:31:47;11.60;99.90
17152;DHT22;8691;50.828;4.700;2023-11-19T04:34:15;11.60;99.90
17152;DHT22;8691;50.828;4.700;2023-11-19T04:36:41;11.70;99.90
17152;DHT22;8691;50.828;4.700;2023-11-19T04:39:09;11.70;99.90
17152;DHT22;8691;50.828;4.700;2023-11-19T04:41:50;11.70;99.90
17152;DHT22;8691;50.828;4.700;2023-11-19T04:44:18;11.80;99.90
17152;DHT22;8691;50.828;4.700;2023-11-19T04:46:45;11.80;99.90
17152;DHT22;8691;50.828;4.700;2023-11-19T04:49:11;11.80;99.90
17152;DHT22;8691;50.828;4.700;2023-11-19T04:51:38;11.80;99.90
17152;DHT22;8691;50.828;4.700;2023-11-19T04:54:04;11.80;99.90
17152;DHT22;8691;50.828;4.700;2023-11-19T04:56:31;11.70;99.90
17152;DHT22;8691;50.828;4.700;2023-11-19T04:58:58;11.60;99.90
17152;DHT22;8691;50.828;4.700;2023-11-19T05:01:24;11.70;99.90
17152;DHT22;8691;50.828;4.700;2023-11-19T05:03:51;11.60;99.90
17152;DHT22;8691;50.828;4.700;2023-11-19T05:06:18;11.50;99.90
17152;DHT22;8691;50.828;4.700;2023-11-19T05:08:45;11.50;99.90
17152;DHT22;8691;50.828;4.700;2023-11-19T05:11:12;11.70;99.90
17152;DHT22;8691;50.828;4.700;2023-11-19T05:13:39;11.70;99.90
17152;DHT22;8691;50.828;4.700;2023-11-19T05:16:06;11.80;99.90
17152;DHT22;8691;50.828;4.700;2023-11-19T05:18:32;11.90;99.90
17152;DHT22;8691;50.828;4.700;2023-11-19T05:20:59;11.90;99.90
17152;DHT22;8691;50.828;4.700;2023-11-19T05:23:26;11.90;99.90
17152;DHT22;8691;50.828;4.700;2023-11-19T05:25:52;12.00;99.90
17152;DHT22;8691;50.828;4.700;2023-11-19T05:28:19;11.90;99.90
17152;DHT22;8691;50.828;4.700;2023-11-19T05:30:46;11.80;99.90
17152;DHT22;8691;50.828;4.700;2023-11-19T05:33:13;11.60;99.90
17152;DHT22;8691;50.828;4.700;2023-11-19T05:35:39;11.50;99.90
17152;DHT22;8691;50.828;4.700;2023-11-19T05:38:06;11.40;99.90
17152;DHT22;8691;50.828;4.700;2023-11-19T05:40:33;11.30;99.90
17152;DHT22;8691;50.828;4.700;2023-11-19T05:42:59;11.30;99.90
17152;DHT22;8691;50.828;4.700;2023-11-19T05:45:26;11.20;99.90
17152;DHT22;8691;50.828;4.700;2023-11-19T05:47:53;11.20;99.90
17152;DHT22;8691;50.828;4.700;2023-11-19T05:50:20;11.20;99.90
17152;DHT22;8691;50.828;4.700;2023-11-19T05:52:47;11.20;99.90
17152;DHT22;8691;50.828;4.700;2023-11-19T05:55:13;11.10;99.90
17152;DHT22;8691;50.828;4.700;2023-11-19T05:57:40;11.20;99.90
17152;DHT22;8691;50.828;4.700;2023-11-19T06:00:07;11.30;99.90
17152;DHT22;8691;50.828;4.700;2023-11-19T06:02:34;11.40;99.90
17152;DHT22;8691;50.828;4.700;2023-11-19T06:05:01;11.40;99.90
17152;DHT22;8691;50.828;4.700;2023-11-19T06:07:27;11.40;99.90
17152;DHT22;8691;50.828;4.700;2023-11-19T06:09:54;11.30;99.90
17152;DHT22;8691;50.828;4.700;2023-11-19T06:12:20;11.30;99.90
17152;DHT22;8691;50.828;4.700;2023-11-19T06:14:47;11.20;99.90
17152;DHT22;8691;50.828;4.700;2023-11-19T06:17:14;11.10;99.90
17152;DHT22;8691;50.828;4.700;2023-11-19T06:19:41;11.10;99.90
17152;DHT22;8691;50.828;4.700;2023-11-19T06:22:08;11.00;99.90
17152;DHT22;8691;50.828;4.700;2023-11-19T06:24:35;10.90;99.90
17152;DHT22;8691;50.828;4.700;2023-11-19T06:27:02;10.90;99.90
17152;DHT22;8691;50.828;4.700;2023-11-19T06:29:28;10.90;99.90
17152;DHT22;8691;50.828;4.700;2023-11-19T06:31:55;10.80;99.90
17152;DHT22;8691;50.828;4.700;2023-11-19T06:34:22;10.80;99.90
17152;DHT22;8691;50.828;4.700;2023-11-19T06:36:49;10.80;99.90
17152;DHT22;8691;50.828;4.700;2023-11-19T06:39:15;10.70;99.90
17152;DHT22;8691;50.828;4.700;2023-11-19T06:41:45;10.70;99.90
17152;DHT22;8691;50.828;4.700;2023-11-19T06:44:11;10.70;99.90
17152;DHT22;8691;50.828;4.700;2023-11-19T06:46:39;10.60;99.90
17152;DHT22;8691;50.828;4.700;2023-11-19T06:49:05;10.60;99.90
17152;DHT22;8691;50.828;4.700;2023-11-19T06:51:33;10.60;99.90
17152;DHT22;8691;50.828;4.700;2023-11-19T06:53:59;10.60;99.90
17152;DHT22;8691;50.828;4.700;2023-11-19T06:56:26;10.50;99.90
17152;DHT22;8691;50.828;4.700;2023-11-19T06:58:53;10.50;99.90
17152;DHT22;8691;50.828;4.700;2023-11-19T07:01:20;10.60;99.90
17152;DHT22;8691;50.828;4.700;2023-11-19T07:03:47;10.60;99.90
17152;DHT22;8691;50.828;4.700;2023-11-19T07:06:14;10.60;99.90
17152;DHT22;8691;50.828;4.700;2023-11-19T07:08:42;10.80;99.90
17152;DHT22;8691;50.828;4.700;2023-11-19T07:11:08;10.80;99.90
17152;DHT22;8691;50.828;4.700;2023-11-19T07:13:35;10.80;99.90
17152;DHT22;8691;50.828;4.700;2023-11-19T07:16:03;10.80;99.90
17152;DHT22;8691;50.828;4.700;2023-11-19T07:18:30;10.80;99.90
17152;DHT22;8691;50.828;4.700;2023-11-19T07:20:57;10.90;99.90
17152;DHT22;8691;50.828;4.700;2023-11-19T07:23:24;10.80;99.90
17152;DHT22;8691;50.828;4.700;2023-11-19T07:25:51;11.00;99.90
17152;DHT22;8691;50.828;4.700;2023-11-19T07:28:18;11.00;99.90
17152;DHT22;8691;50.828;4.700;2023-11-19T07:30:45;10.90;99.90
17152;DHT22;8691;50.828;4.700;2023-11-19T07:33:12;11.10;99.90
17152;DHT22;8691;50.828;4.700;2023-11-19T07:35:39;11.10;99.90
17152;DHT22;8691;50.828;4.700;2023-11-19T07:38:06;11.20;99.90
17152;DHT22;8691;50.828;4.700;2023-11-19T07:40:33;11.30;99.90
17152;DHT22;8691;50.828;4.700;2023-11-19T07:42:59;11.40;99.90
17152;DHT22;8691;50.828;4.700;2023-11-19T07:45:26;11.50;99.90
17152;DHT22;8691;50.828;4.700;2023-11-19T07:47:53;11.60;99.90
17152;DHT22;8691;50.828;4.700;2023-11-19T07:50:21;11.60;99.90
17152;DHT22;8691;50.828;4.700;2023-11-19T07:52:49;11.60;99.90
17152;DHT22;8691;50.828;4.700;2023-11-19T07:55:16;11.50;99.90
17152;DHT22;8691;50.828;4.700;2023-11-19T07:57:42;11.60;99.90
17152;DHT22;8691;50.828;4.700;2023-11-19T08:00:10;12.00;99.90
17152;DHT22;8691;50.828;4.700;2023-11-19T08:02:38;12.10;99.90
17152;DHT22;8691;50.828;4.700;2023-11-19T08:05:06;12.10;99.90
17152;DHT22;8691;50.828;4.700;2023-11-19T08:07:33;12.30;99.90
17152;DHT22;8691;50.828;4.700;2023-11-19T08:09:59;12.30;99.90
17152;DHT22;8691;50.828;4.700;2023-11-19T08:12:26;12.40;99.90
17152;DHT22;8691;50.828;4.700;2023-11-19T08:14:53;12.70;99.90
17152;DHT22;8691;50.828;4.700;2023-11-19T08:17:21;13.00;99.90
17152;DHT22;8691;50.828;4.700;2023-11-19T08:19:47;13.00;99.90
17152;DHT22;8691;50.828;4.700;2023-11-19T08:22:15;13.00;99.90
17152;DHT22;8691;50.828;4.700;2023-11-19T08:24:42;13.00;99.90
17152;DHT22;8691;50.828;4.700;2023-11-19T08:27:08;12.80;99.90
17152;DHT22;8691;50.828;4.700;2023-11-19T08:29:35;13.00;99.90
17152;DHT22;8691;50.828;4.700;2023-11-19T08:32:03;13.40;99.90
17152;DHT22;8691;50.828;4.700;2023-11-19T08:34:29;13.70;99.90
17152;DHT22;8691;50.828;4.700;2023-11-19T08:36:56;14.10;99.90
17152;DHT22;8691;50.828;4.700;2023-11-19T08:39:23;14.40;99.90
17152;DHT22;8691;50.828;4.700;2023-11-19T08:41:50;14.50;99.90
17152;DHT22;8691;50.828;4.700;2023-11-19T08:44:18;14.90;99.90
17152;DHT22;8691;50.828;4.700;2023-11-19T08:46:51;14.90;99.90
17152;DHT22;8691;50.828;4.700;2023-11-19T08:49:18;15.10;99.90
17152;DHT22;8691;50.828;4.700;2023-11-19T08:51:45;15.20;99.90
17152;DHT22;8691;50.828;4.700;2023-11-19T08:54:12;15.60;99.90
17152;DHT22;8691;50.828;4.700;2023-11-19T08:56:39;15.60;99.90
17152;DHT22;8691;50.828;4.700;2023-11-19T08:59:06;15.40;99.90
17152;DHT22;8691;50.828;4.700;2023-11-19T09:01:33;14.90;99.90
17152;DHT22;8691;50.828;4.700;2023-11-19T09:04:00;14.50;99.90
17152;DHT22;8691;50.828;4.700;2023-11-19T09:06:27;14.00;99.90
17152;DHT22;8691;50.828;4.700;2023-11-19T09:08:57;13.50;99.90
17152;DHT22;8691;50.828;4.700;2023-11-19T09:11:22;13.30;99.90
17152;DHT22;8691;50.828;4.700;2023-11-19T09:13:49;13.30;99.90
17152;DHT22;8691;50.828;4.700;2023-11-19T09:16:16;13.10;99.90
17152;DHT22;8691;50.828;4.700;2023-11-19T09:18:43;13.10;99.90
17152;DHT22;8691;50.828;4.700;2023-11-19T09:21:12;13.10;99.90
17152;DHT22;8691;50.828;4.700;2023-11-19T09:23:39;13.30;99.90
17152;DHT22;8691;50.828;4.700;2023-11-19T09:26:10;13.60;99.90
17152;DHT22;8691;50.828;4.700;2023-11-19T09:28:34;13.60;99.90
17152;DHT22;8691;50.828;4.700;2023-11-19T09:31:01;13.50;99.90
17152;DHT22;8691;50.828;4.700;2023-11-19T09:33:28;13.50;99.90
17152;DHT22;8691;50.828;4.700;2023-11-19T09:35:55;13.50;99.90
17152;DHT22;8691;50.828;4.700;2023-11-19T09:38:22;13.50;99.90
17152;DHT22;8691;50.828;4.700;2023-11-19T09:40:49;13.60;99.90
17152;DHT22;8691;50.828;4.700;2023-11-19T09:43:16;14.00;99.90
17152;DHT22;8691;50.828;4.700;2023-11-19T09:45:49;14.70;99.90
17152;DHT22;8691;50.828;4.700;2023-11-19T09:48:18;14.70;99.90
17152;DHT22;8691;50.828;4.700;2023-11-19T09:50:48;14.90;99.90
17152;DHT22;8691;50.828;4.700;2023-11-19T09:53:15;15.20;99.90
17152;DHT22;8691;50.828;4.700;2023-11-19T09:55:42;15.30;99.90
17152;DHT22;8691;50.828;4.700;2023-11-19T09:58:09;15.30;99.90
17152;DHT22;8691;50.828;4.700;2023-11-19T10:00:36;15.30;99.90
17152;DHT22;8691;50.828;4.700;2023-11-19T10:03:03;15.50;99.90
17152;DHT22;8691;50.828;4.700;2023-11-19T10:05:30;15.70;99.90
17152;DHT22;8691;50.828;4.700;2023-11-19T10:07:57;15.60;99.90
17152;DHT22;8691;50.828;4.700;2023-11-19T10:10:23;15.40;99.90
17152;DHT22;8691;50.828;4.700;2023-11-19T10:12:51;14.80;99.90
17152;DHT22;8691;50.828;4.700;2023-11-19T10:15:21;14.80;99.90
17152;DHT22;8691;50.828;4.700;2023-11-19T10:17:48;14.60;99.90
17152;DHT22;8691;50.828;4.700;2023-11-19T10:20:14;14.80;99.90
17152;DHT22;8691;50.828;4.700;2023-11-19T10:22:41;15.10;99.90
17152;DHT22;8691;50.828;4.700;2023-11-19T10:25:24;15.20;99.90
17152;DHT22;8691;50.828;4.700;2023-11-19T10:27:51;15.20;99.90
17152;DHT22;8691;50.828;4.700;2023-11-19T10:30:21;15.10;99.90
17152;DHT22;8691;50.828;4.700;2023-11-19T10:33:06;15.00;99.90
17152;DHT22;8691;50.828;4.700;2023-11-19T10:35:33;14.70;99.90
17152;DHT22;8691;50.828;4.700;2023-11-19T10:38:00;14.60;99.90
17152;DHT22;8691;50.828;4.700;2023-11-19T10:40:38;14.60;99.90
17152;DHT22;8691;50.828;4.700;2023-11-19T10:43:08;14.60;99.90
17152;DHT22;8691;50.828;4.700;2023-11-19T10:45:36;14.60;99.90
17152;DHT22;8691;50.828;4.700;2023-11-19T10:48:03;14.70;99.90
17152;DHT22;8691;50.828;4.700;2023-11-19T10:50:30;14.70;99.90
17152;DHT22;8691;50.828;4.700;2023-11-19T10:52:57;14.80;99.90
17152;DHT22;8691;50.828;4.700;2023-11-19T10:55:30;15.00;99.90
17152;DHT22;8691;50.828;4.700;2023-11-19T10:58:00;15.20;99.90
17152;DHT22;8691;50.828;4.700;2023-11-19T11:00:26;15.20;99.90
17152;DHT22;8691;50.828;4.700;2023-11-19T11:02:54;15.30;99.90
17152;DHT22;8691;50.828;4.700;2023-11-19T11:05:20;15.30;99.90
17152;DHT22;8691;50.828;4.700;2023-11-19T11:07:47;15.20;99.90
17152;DHT22;8691;50.828;4.700;2023-11-19T11:10:14;15.00;99.90
17152;DHT22;8691;50.828;4.700;2023-11-19T11:12:41;14.80;99.90
17152;DHT22;8691;50.828;4.700;2023-11-19T11:15:08;14.90;99.90
17152;DHT22;8691;50.828;4.700;2023-11-19T11:17:35;15.00;99.90
17152;DHT22;8691;50.828;4.700;2023-11-19T11:20:01;14.80;99.90
17152;DHT22;8691;50.828;4.700;2023-11-19T11:22:29;15.10;99.90
17152;DHT22;8691;50.828;4.700;2023-11-19T11:25:02;15.10;99.90
17152;DHT22;8691;50.828;4.700;2023-11-19T11:30:42;15.10;99.90
17152;DHT22;8691;50.828;4.700;2023-11-19T11:33:09;15.00;99.90
17152;DHT22;8691;50.828;4.700;2023-11-19T11:35:43;14.70;99.90
17152;DHT22;8691;50.828;4.700;2023-11-19T11:38:08;14.50;99.90
17152;DHT22;8691;50.828;4.700;2023-11-19T11:40:35;14.50;99.90
17152;DHT22;8691;50.828;4.700;2023-11-19T11:43:39;14.50;99.90
17152;DHT22;8691;50.828;4.700;2023-11-19T11:45:40;14.50;99.90
17152;DHT22;8691;50.828;4.700;2023-11-19T11:48:07;14.70;99.90
17152;DHT22;8691;50.828;4.700;2023-11-19T11:50:33;14.80;99.90
17152;DHT22;8691;50.828;4.700;2023-11-19T11:55:51;14.70;99.90
17152;DHT22;8691;50.828;4.700;2023-11-19T11:58:03;14.60;99.90
17152;DHT22;8691;50.828;4.700;2023-11-19T12:00:36;14.40;99.90
17152;DHT22;8691;50.828;4.700;2023-11-19T12:02:59;14.40;99.90
17152;DHT22;8691;50.828;4.700;2023-11-19T12:05:24;14.40;99.90
17152;DHT22;8691;50.828;4.700;2023-11-19T12:08:01;14.20;99.90
17152;DHT22;8691;50.828;4.700;2023-11-19T12:10:31;14.20;99.90
17152;DHT22;8691;50.828;4.700;2023-11-19T12:13:00;14.20;99.90
17152;DHT22;8691;50.828;4.700;2023-11-19T12:15:27;14.40;99.90
17152;DHT22;8691;50.828;4.700;2023-11-19T12:17:57;14.80;99.90
17152;DHT22;8691;50.828;4.700;2023-11-19T12:20:24;15.00;99.90
17152;DHT22;8691;50.828;4.700;2023-11-19T12:22:50;15.00;99.90
17152;DHT22;8691;50.828;4.700;2023-11-19T12:25:17;15.10;99.90
17152;DHT22;8691;50.828;4.700;2023-11-19T12:27:47;15.10;99.90
17152;DHT22;8691;50.828;4.700;2023-11-19T12:30:25;15.20;99.90
17152;DHT22;8691;50.828;4.700;2023-11-19T12:32:53;15.10;99.90
17152;DHT22;8691;50.828;4.700;2023-11-19T12:35:22;15.00;99.90
17152;DHT22;8691;50.828;4.700;2023-11-19T12:37:49;14.90;99.90
17152;DHT22;8691;50.828;4.700;2023-11-19T12:40:19;14.60;99.90
17152;DHT22;8691;50.828;4.700;2023-11-19T12:42:48;14.40;99.90
17152;DHT22;8691;50.828;4.700;2023-11-19T12:45:16;14.00;99.90
17152;DHT22;8691;50.828;4.700;2023-11-19T12:47:45;14.00;99.90
17152;DHT22;8691;50.828;4.700;2023-11-19T12:50:15;13.90;99.90
17152;DHT22;8691;50.828;4.700;2023-11-19T12:52:41;13.90;99.90
17152;DHT22;8691;50.828;4.700;2023-11-19T12:55:27;13.90;99.90
17152;DHT22;8691;50.828;4.700;2023-11-19T12:57:54;14.00;99.90
17152;DHT22;8691;50.828;4.700;2023-11-19T13:00:24;13.90;99.90
17152;DHT22;8691;50.828;4.700;2023-11-19T13:02:54;14.00;99.90
17152;DHT22;8691;50.828;4.700;2023-11-19T13:05:32;14.30;99.90
17152;DHT22;8691;50.828;4.700;2023-11-19T13:08:05;14.50;99.90
17152;DHT22;8691;50.828;4.700;2023-11-19T13:10:32;14.70;99.90
17152;DHT22;8691;50.828;4.700;2023-11-19T13:13:05;14.80;99.90
17152;DHT22;8691;50.828;4.700;2023-11-19T13:15:32;14.80;99.90
17152;DHT22;8691;50.828;4.700;2023-11-19T13:17:59;14.80;99.90
17152;DHT22;8691;50.828;4.700;2023-11-19T13:20:25;14.80;99.90
17152;DHT22;8691;50.828;4.700;2023-11-19T13:23:01;14.90;99.90
17152;DHT22;8691;50.828;4.700;2023-11-19T13:25:24;14.60;99.90
17152;DHT22;8691;50.828;4.700;2023-11-19T13:27:50;14.60;99.90
17152;DHT22;8691;50.828;4.700;2023-11-19T13:30:18;14.40;99.90
17152;DHT22;8691;50.828;4.700;2023-11-19T13:32:46;14.30;99.90
17152;DHT22;8691;50.828;4.700;2023-11-19T13:35:13;14.30;99.90
17152;DHT22;8691;50.828;4.700;2023-11-19T13:37:40;14.30;99.90
17152;DHT22;8691;50.828;4.700;2023-11-19T13:40:07;14.20;99.90
17152;DHT22;8691;50.828;4.700;2023-11-19T13:42:34;14.30;99.90
17152;DHT22;8691;50.828;4.700;2023-11-19T13:45:01;14.20;99.90
17152;DHT22;8691;50.828;4.700;2023-11-19T13:47:28;14.10;99.90
17152;DHT22;8691;50.828;4.700;2023-11-19T13:49:55;14.10;99.90
17152;DHT22;8691;50.828;4.700;2023-11-19T13:52:22;13.90;99.90
17152;DHT22;8691;50.828;4.700;2023-11-19T13:54:49;13.90;99.90
17152;DHT22;8691;50.828;4.700;2023-11-19T13:57:16;13.80;99.90
17152;DHT22;8691;50.828;4.700;2023-11-19T13:59:43;13.80;99.90
17152;DHT22;8691;50.828;4.700;2023-11-19T14:02:10;13.70;99.90
17152;DHT22;8691;50.828;4.700;2023-11-19T14:04:38;13.60;99.90
17152;DHT22;8691;50.828;4.700;2023-11-19T14:07:04;13.60;99.90
17152;DHT22;8691;50.828;4.700;2023-11-19T14:09:31;13.60;99.90
17152;DHT22;8691;50.828;4.700;2023-11-19T14:11:58;13.50;99.90
17152;DHT22;8691;50.828;4.700;2023-11-19T14:14:25;13.40;99.90
17152;DHT22;8691;50.828;4.700;2023-11-19T14:16:52;13.20;99.90
17152;DHT22;8691;50.828;4.700;2023-11-19T14:19:19;13.10;99.90
17152;DHT22;8691;50.828;4.700;2023-11-19T14:21:46;13.10;99.90
17152;DHT22;8691;50.828;4.700;2023-11-19T14:24:13;13.20;99.90
17152;DHT22;8691;50.828;4.700;2023-11-19T14:26:40;13.20;99.90
17152;DHT22;8691;50.828;4.700;2023-11-19T14:29:07;13.30;99.90
17152;DHT22;8691;50.828;4.700;2023-11-19T14:31:34;13.30;99.90
17152;DHT22;8691;50.828;4.700;2023-11-19T14:34:01;13.30;99.90
17152;DHT22;8691;50.828;4.700;2023-11-19T14:36:27;13.30;99.90
17152;DHT22;8691;50.828;4.700;2023-11-19T14:38:54;13.30;99.90
17152;DHT22;8691;50.828;4.700;2023-11-19T14:41:21;13.20;99.90
17152;DHT22;8691;50.828;4.700;2023-11-19T14:43:48;13.20;99.90
17152;DHT22;8691;50.828;4.700;2023-11-19T14:46:16;13.30;99.90
17152;DHT22;8691;50.828;4.700;2023-11-19T14:48:44;13.20;99.90
17152;DHT22;8691;50.828;4.700;2023-11-19T14:51:11;13.20;99.90
17152;DHT22;8691;50.828;4.700;2023-11-19T14:53:39;13.10;99.90
17152;DHT22;8691;50.828;4.700;2023-11-19T14:56:09;13.20;99.90
17152;DHT22;8691;50.828;4.700;2023-11-19T14:58:33;13.20;99.90
17152;DHT22;8691;50.828;4.700;2023-11-19T15:01:00;13.20;99.90
17152;DHT22;8691;50.828;4.700;2023-11-19T15:03:27;13.10;99.90
17152;DHT22;8691;50.828;4.700;2023-11-19T15:05:54;13.10;99.90
17152;DHT22;8691;50.828;4.700;2023-11-19T15:08:21;13.10;99.90
17152;DHT22;8691;50.828;4.700;2023-11-19T15:10:47;13.10;99.90
17152;DHT22;8691;50.828;4.700;2023-11-19T15:13:15;13.10;99.90
17152;DHT22;8691;50.828;4.700;2023-11-19T15:15:42;13.10;99.90
17152;DHT22;8691;50.828;4.700;2023-11-19T15:18:09;13.00;99.90
17152;DHT22;8691;50.828;4.700;2023-11-19T15:20:36;13.00;99.90
17152;DHT22;8691;50.828;4.700;2023-11-19T15:23:03;13.00;99.90
17152;DHT22;8691;50.828;4.700;2023-11-19T15:25:30;12.80;99.90
17152;DHT22;8691;50.828;4.700;2023-11-19T15:27:57;12.80;99.90
17152;DHT22;8691;50.828;4.700;2023-11-19T15:30:24;12.60;99.90
17152;DHT22;8691;50.828;4.700;2023-11-19T15:32:50;12.60;99.90
17152;DHT22;8691;50.828;4.700;2023-11-19T15:35:18;12.60;99.90
17152;DHT22;8691;50.828;4.700;2023-11-19T15:37:44;12.70;99.90
17152;DHT22;8691;50.828;4.700;2023-11-19T15:40:11;12.70;99.90
17152;DHT22;8691;50.828;4.700;2023-11-19T15:42:38;12.70;99.90
17152;DHT22;8691;50.828;4.700;2023-11-19T15:45:05;12.70;99.90
17152;DHT22;8691;50.828;4.700;2023-11-19T15:47:31;12.70;99.90
17152;DHT22;8691;50.828;4.700;2023-11-19T15:49:59;12.70;99.90
17152;DHT22;8691;50.828;4.700;2023-11-19T15:52:26;12.90;99.90